sensor_id;sensor_type;location;lat;lon;timestamp;P1;durP1;ratioP1;P2;durP2;ratioP2
47403;SDS011;33157;51.508;4.288;2023-02-23T00:00:48;116.22;;;47.35;;
47403;SDS011;33157;51.508;4.288;2023-02-23T00:05:53;115.83;;;48.43;;
47403;SDS011;33157;51.508;4.288;2023-02-23T00:10:55;113.18;;;48.13;;
47403;SDS011;33157;51.508;4.288;2023-02-23T00:16:05;117.40;;;49.25;;
47403;SDS011;33157;51.508;4.288;2023-02-23T00:21:11;118.03;;;49.03;;
47403;SDS011;33157;51.508;4.288;2023-02-23T00:26:25;124.30;;;49.88;;
47403;SDS011;33157;51.508;4.288;2023-02-23T00:31:33;124.47;;;51.50;;
47403;SDS011;33157;51.508;4.288;2023-02-23T00:36:43;119.57;;;53.15;;
47403;SDS011;33157;51.508;4.288;2023-02-23T00:41:50;149.32;;;58.47;;
47403;SDS011;33157;51.508;4.288;2023-02-23T00:47:01;142.77;;;57.83;;
47403;SDS011;33157;51.508;4.288;2023-02-23T00:52:07;141.07;;;57.10;;
47403;SDS011;33157;51.508;4.288;2023-02-23T00:57:20;136.15;;;54.63;;
47403;SDS011;33157;51.508;4.288;2023-02-23T01:02:22;139.25;;;54.58;;
47403;SDS011;33157;51.508;4.288;2023-02-23T01:07:24;140.90;;;58.93;;
47403;SDS011;33157;51.508;4.288;2023-02-23T01:12:32;139.95;;;55.47;;
47403;SDS011;33157;51.508;4.288;2023-02-23T01:17:33;148.57;;;55.72;;
47403;SDS011;33157;51.508;4.288;2023-02-23T01:22:42;145.27;;;53.65;;
47403;SDS011;33157;51.508;4.288;2023-02-23T01:27:49;156.82;;;56.88;;
47403;SDS011;33157;51.508;4.288;2023-02-23T01:32:55;155.57;;;57.23;;
47403;SDS011;33157;51.508;4.288;2023-02-23T01:38:05;141.80;;;54.72;;
47403;SDS011;33157;51.508;4.288;2023-02-23T01:43:16;153.40;;;59.03;;
47403;SDS011;33157;51.508;4.288;2023-02-23T01:48:33;139.87;;;52.57;;
47403;SDS011;33157;51.508;4.288;2023-02-23T01:53:49;149.57;;;58.55;;
47403;SDS011;33157;51.508;4.288;2023-02-23T01:58:54;152.88;;;57.17;;
47403;SDS011;33157;51.508;4.288;2023-02-23T02:04:01;137.80;;;54.97;;
47403;SDS011;33157;51.508;4.288;2023-02-23T02:09:20;157.63;;;56.92;;
47403;SDS011;33157;51.508;4.288;2023-02-23T02:14:33;129.60;;;52.72;;
47403;SDS011;33157;51.508;4.288;2023-02-23T02:25:30;143.32;;;53.58;;
47403;SDS011;33157;51.508;4.288;2023-02-23T02:31:06;149.07;;;55.42;;
47403;SDS011;33157;51.508;4.288;2023-02-23T02:47:48;137.40;;;54.08;;
47403;SDS011;33157;51.508;4.288;2023-02-23T02:53:08;141.63;;;54.35;;
47403;SDS011;33157;51.508;4.288;2023-02-23T02:58:17;135.82;;;51.85;;
47403;SDS011;33157;51.508;4.288;2023-02-23T03:09:16;138.35;;;54.10;;
47403;SDS011;33157;51.508;4.288;2023-02-23T03:14:44;144.40;;;55.28;;
47403;SDS011;33157;51.508;4.288;2023-02-23T03:20:42;142.48;;;54.60;;
47403;SDS011;33157;51.508;4.288;2023-02-23T03:26:06;147.32;;;54.20;;
47403;SDS011;33157;51.508;4.288;2023-02-23T03:37:17;133.30;;;52.50;;
47403;SDS011;33157;51.508;4.288;2023-02-23T03:43:01;132.10;;;52.95;;
47403;SDS011;33157;51.508;4.288;2023-02-23T03:48:25;142.20;;;54.75;;
47403;SDS011;33157;51.508;4.288;2023-02-23T03:53:52;137.50;;;53.70;;
47403;SDS011;33157;51.508;4.288;2023-02-23T03:59:24;139.40;;;55.08;;
47403;SDS011;33157;51.508;4.288;2023-02-23T04:04:54;128.57;;;50.95;;
47403;SDS011;33157;51.508;4.288;2023-02-23T04:10:17;137.25;;;54.17;;
47403;SDS011;33157;51.508;4.288;2023-02-23T04:20:53;127.50;;;51.72;;
47403;SDS011;33157;51.508;4.288;2023-02-23T04:26:00;129.60;;;51.53;;
47403;SDS011;33157;51.508;4.288;2023-02-23T04:31:01;124.50;;;50.10;;
47403;SDS011;33157;51.508;4.288;2023-02-23T04:36:12;135.70;;;54.80;;
47403;SDS011;33157;51.508;4.288;2023-02-23T04:41:14;136.95;;;53.97;;
47403;SDS011;33157;51.508;4.288;2023-02-23T04:46:16;133.85;;;51.75;;
47403;SDS011;33157;51.508;4.288;2023-02-23T04:51:16;137.57;;;55.65;;
47403;SDS011;33157;51.508;4.288;2023-02-23T04:56:21;146.20;;;56.50;;
47403;SDS011;33157;51.508;4.288;2023-02-23T05:01:24;144.00;;;57.65;;
47403;SDS011;33157;51.508;4.288;2023-02-23T05:06:29;134.40;;;54.97;;
47403;SDS011;33157;51.508;4.288;2023-02-23T05:11:36;143.25;;;54.35;;
47403;SDS011;33157;51.508;4.288;2023-02-23T05:16:38;134.32;;;54.13;;
47403;SDS011;33157;51.508;4.288;2023-02-23T05:21:40;148.00;;;56.05;;
47403;SDS011;33157;51.508;4.288;2023-02-23T05:26:45;155.88;;;57.63;;
47403;SDS011;33157;51.508;4.288;2023-02-23T05:31:47;159.32;;;58.25;;
47403;SDS011;33157;51.508;4.288;2023-02-23T05:41:51;154.27;;;58.42;;
47403;SDS011;33157;51.508;4.288;2023-02-23T05:46:58;163.77;;;60.13;;
47403;SDS011;33157;51.508;4.288;2023-02-23T05:52:00;174.18;;;61.08;;
47403;SDS011;33157;51.508;4.288;2023-02-23T05:57:02;157.90;;;60.07;;
47403;SDS011;33157;51.508;4.288;2023-02-23T06:02:09;161.38;;;59.33;;
47403;SDS011;33157;51.508;4.288;2023-02-23T06:07:12;143.18;;;58.47;;
47403;SDS011;33157;51.508;4.288;2023-02-23T06:12:20;160.75;;;56.05;;
47403;SDS011;33157;51.508;4.288;2023-02-23T06:17:24;148.27;;;58.03;;
47403;SDS011;33157;51.508;4.288;2023-02-23T06:22:33;146.82;;;57.22;;
47403;SDS011;33157;51.508;4.288;2023-02-23T06:27:38;152.40;;;57.90;;
47403;SDS011;33157;51.508;4.288;2023-02-23T06:32:43;168.95;;;61.58;;
47403;SDS011;33157;51.508;4.288;2023-02-23T06:37:45;157.98;;;56.95;;
47403;SDS011;33157;51.508;4.288;2023-02-23T06:42:46;157.52;;;59.67;;
47403;SDS011;33157;51.508;4.288;2023-02-23T06:47:59;165.13;;;58.75;;
47403;SDS011;33157;51.508;4.288;2023-02-23T06:53:01;163.40;;;57.65;;
47403;SDS011;33157;51.508;4.288;2023-02-23T06:58:02;166.17;;;57.60;;
47403;SDS011;33157;51.508;4.288;2023-02-23T07:03:04;174.68;;;62.85;;
47403;SDS011;33157;51.508;4.288;2023-02-23T07:08:19;170.18;;;60.13;;
47403;SDS011;33157;51.508;4.288;2023-02-23T07:13:22;177.85;;;59.78;;
47403;SDS011;33157;51.508;4.288;2023-02-23T07:18:31;193.50;;;60.55;;
47403;SDS011;33157;51.508;4.288;2023-02-23T07:23:38;172.57;;;60.55;;
47403;SDS011;33157;51.508;4.288;2023-02-23T07:28:39;175.05;;;61.25;;
47403;SDS011;33157;51.508;4.288;2023-02-23T07:33:40;158.18;;;56.72;;
47403;SDS011;33157;51.508;4.288;2023-02-23T07:43:44;159.18;;;54.45;;
47403;SDS011;33157;51.508;4.288;2023-02-23T07:48:48;162.45;;;57.25;;
47403;SDS011;33157;51.508;4.288;2023-02-23T07:53:49;162.73;;;55.58;;
47403;SDS011;33157;51.508;4.288;2023-02-23T07:58:58;148.53;;;54.83;;
47403;SDS011;33157;51.508;4.288;2023-02-23T08:04:00;132.43;;;50.13;;
47403;SDS011;33157;51.508;4.288;2023-02-23T08:09:03;155.48;;;55.13;;
47403;SDS011;33157;51.508;4.288;2023-02-23T08:14:07;150.95;;;55.08;;
47403;SDS011;33157;51.508;4.288;2023-02-23T08:19:10;152.55;;;53.13;;
47403;SDS011;33157;51.508;4.288;2023-02-23T08:24:13;162.68;;;54.90;;
47403;SDS011;33157;51.508;4.288;2023-02-23T08:29:15;137.25;;;51.00;;
47403;SDS011;33157;51.508;4.288;2023-02-23T08:34:19;135.63;;;49.85;;
47403;SDS011;33157;51.508;4.288;2023-02-23T08:39:23;144.25;;;51.25;;
47403;SDS011;33157;51.508;4.288;2023-02-23T08:44:25;130.05;;;49.42;;
47403;SDS011;33157;51.508;4.288;2023-02-23T08:49:26;143.07;;;52.10;;
47403;SDS011;33157;51.508;4.288;2023-02-23T08:54:27;128.65;;;50.53;;
47403;SDS011;33157;51.508;4.288;2023-02-23T08:59:30;131.60;;;49.85;;
47403;SDS011;33157;51.508;4.288;2023-02-23T09:04:31;110.28;;;45.75;;
47403;SDS011;33157;51.508;4.288;2023-02-23T09:09:39;114.28;;;46.63;;
47403;SDS011;33157;51.508;4.288;2023-02-23T09:14:40;105.55;;;45.20;;
47403;SDS011;33157;51.508;4.288;2023-02-23T09:24:44;94.50;;;42.95;;
47403;SDS011;33157;51.508;4.288;2023-02-23T09:29:57;90.30;;;40.95;;
47403;SDS011;33157;51.508;4.288;2023-02-23T09:35:00;85.07;;;39.33;;
47403;SDS011;33157;51.508;4.288;2023-02-23T09:40:02;73.05;;;36.80;;
47403;SDS011;33157;51.508;4.288;2023-02-23T09:45:11;66.43;;;34.30;;
47403;SDS011;33157;51.508;4.288;2023-02-23T09:50:25;58.83;;;30.42;;
47403;SDS011;33157;51.508;4.288;2023-02-23T09:55:28;55.35;;;30.75;;
47403;SDS011;33157;51.508;4.288;2023-02-23T10:00:30;54.00;;;30.38;;
47403;SDS011;33157;51.508;4.288;2023-02-23T10:05:51;49.13;;;28.55;;
47403;SDS011;33157;51.508;4.288;2023-02-23T10:11:02;37.90;;;25.23;;
47403;SDS011;33157;51.508;4.288;2023-02-23T10:22:06;31.90;;;21.45;;
47403;SDS011;33157;51.508;4.288;2023-02-23T10:27:16;34.10;;;21.85;;
47403;SDS011;33157;51.508;4.288;2023-02-23T10:37:28;32.17;;;21.23;;
47403;SDS011;33157;51.508;4.288;2023-02-23T10:42:35;31.95;;;20.27;;
47403;SDS011;33157;51.508;4.288;2023-02-23T10:47:36;30.55;;;19.65;;
47403;SDS011;33157;51.508;4.288;2023-02-23T10:52:41;29.33;;;19.55;;
47403;SDS011;33157;51.508;4.288;2023-02-23T10:58:19;26.92;;;17.58;;
47403;SDS011;33157;51.508;4.288;2023-02-23T11:03:24;24.50;;;16.27;;
47403;SDS011;33157;51.508;4.288;2023-02-23T11:18:43;24.50;;;16.70;;
47403;SDS011;33157;51.508;4.288;2023-02-23T11:23:56;26.00;;;16.50;;
47403;SDS011;33157;51.508;4.288;2023-02-23T11:29:16;24.83;;;18.33;;
47403;SDS011;33157;51.508;4.288;2023-02-23T11:34:27;26.67;;;18.95;;
47403;SDS011;33157;51.508;4.288;2023-02-23T11:39:38;23.88;;;16.52;;
47403;SDS011;33157;51.508;4.288;2023-02-23T11:45:14;21.05;;;14.80;;
47403;SDS011;33157;51.508;4.288;2023-02-23T11:50:24;16.55;;;13.43;;
47403;SDS011;33157;51.508;4.288;2023-02-23T11:55:30;18.35;;;13.18;;
47403;SDS011;33157;51.508;4.288;2023-02-23T12:00:35;15.75;;;12.52;;
47403;SDS011;33157;51.508;4.288;2023-02-23T12:05:36;16.00;;;10.88;;
47403;SDS011;33157;51.508;4.288;2023-02-23T12:10:48;16.80;;;10.82;;
47403;SDS011;33157;51.508;4.288;2023-02-23T12:21:49;14.30;;;9.50;;
47403;SDS011;33157;51.508;4.288;2023-02-23T12:32:21;10.82;;;8.48;;
47403;SDS011;33157;51.508;4.288;2023-02-23T12:37:40;11.85;;;8.25;;
47403;SDS011;33157;51.508;4.288;2023-02-23T12:42:46;10.32;;;7.32;;
47403;SDS011;33157;51.508;4.288;2023-02-23T12:53:47;9.70;;;6.55;;
47403;SDS011;33157;51.508;4.288;2023-02-23T13:04:38;10.23;;;7.00;;
47403;SDS011;33157;51.508;4.288;2023-02-23T13:10:03;11.75;;;7.40;;
47403;SDS011;33157;51.508;4.288;2023-02-23T13:31:19;15.35;;;7.78;;
47403;SDS011;33157;51.508;4.288;2023-02-23T13:36:34;17.85;;;8.40;;
47403;SDS011;33157;51.508;4.288;2023-02-23T13:41:37;13.55;;;7.88;;
47403;SDS011;33157;51.508;4.288;2023-02-23T13:52:37;11.85;;;8.45;;
47403;SDS011;33157;51.508;4.288;2023-02-23T13:57:42;11.95;;;7.97;;
47403;SDS011;33157;51.508;4.288;2023-02-23T14:02:52;13.68;;;8.43;;
47403;SDS011;33157;51.508;4.288;2023-02-23T14:07:54;13.02;;;7.10;;
47403;SDS011;33157;51.508;4.288;2023-02-23T14:13:05;11.82;;;6.00;;
47403;SDS011;33157;51.508;4.288;2023-02-23T14:18:33;10.02;;;5.45;;
47403;SDS011;33157;51.508;4.288;2023-02-23T14:29:21;7.43;;;3.92;;
47403;SDS011;33157;51.508;4.288;2023-02-23T14:40:00;12.15;;;6.40;;
47403;SDS011;33157;51.508;4.288;2023-02-23T14:45:23;12.13;;;7.40;;
47403;SDS011;33157;51.508;4.288;2023-02-23T14:50:29;14.95;;;7.43;;
47403;SDS011;33157;51.508;4.288;2023-02-23T14:55:46;14.43;;;7.55;;
47403;SDS011;33157;51.508;4.288;2023-02-23T15:00:49;13.60;;;8.82;;
47403;SDS011;33157;51.508;4.288;2023-02-23T15:05:53;13.10;;;9.10;;
47403;SDS011;33157;51.508;4.288;2023-02-23T15:16:35;19.27;;;11.10;;
47403;SDS011;33157;51.508;4.288;2023-02-23T15:21:37;18.55;;;9.73;;
47403;SDS011;33157;51.508;4.288;2023-02-23T15:26:46;18.27;;;10.43;;
47403;SDS011;33157;51.508;4.288;2023-02-23T15:31:49;17.52;;;11.20;;
47403;SDS011;33157;51.508;4.288;2023-02-23T15:42:17;19.88;;;11.93;;
47403;SDS011;33157;51.508;4.288;2023-02-23T15:47:30;20.17;;;11.05;;
47403;SDS011;33157;51.508;4.288;2023-02-23T15:52:42;17.83;;;9.40;;
47403;SDS011;33157;51.508;4.288;2023-02-23T15:57:55;16.27;;;9.85;;
47403;SDS011;33157;51.508;4.288;2023-02-23T16:02:59;14.07;;;8.70;;
47403;SDS011;33157;51.508;4.288;2023-02-23T16:08:02;9.98;;;5.75;;
47403;SDS011;33157;51.508;4.288;2023-02-23T16:13:17;10.38;;;5.35;;
47403;SDS011;33157;51.508;4.288;2023-02-23T16:23:55;9.20;;;5.50;;
47403;SDS011;33157;51.508;4.288;2023-02-23T16:29:04;11.90;;;5.95;;
47403;SDS011;33157;51.508;4.288;2023-02-23T16:34:24;12.02;;;6.55;;
47403;SDS011;33157;51.508;4.288;2023-02-23T16:39:27;10.98;;;6.43;;
47403;SDS011;33157;51.508;4.288;2023-02-23T16:44:39;13.85;;;6.47;;
47403;SDS011;33157;51.508;4.288;2023-02-23T16:49:48;13.85;;;6.80;;
47403;SDS011;33157;51.508;4.288;2023-02-23T16:54:52;20.02;;;8.23;;
47403;SDS011;33157;51.508;4.288;2023-02-23T16:59:54;16.38;;;6.75;;
47403;SDS011;33157;51.508;4.288;2023-02-23T17:05:00;19.63;;;8.15;;
47403;SDS011;33157;51.508;4.288;2023-02-23T17:10:02;21.55;;;7.65;;
47403;SDS011;33157;51.508;4.288;2023-02-23T17:15:14;21.52;;;7.63;;
47403;SDS011;33157;51.508;4.288;2023-02-23T17:20:19;23.42;;;8.15;;
47403;SDS011;33157;51.508;4.288;2023-02-23T17:25:26;26.88;;;9.05;;
47403;SDS011;33157;51.508;4.288;2023-02-23T17:30:30;36.10;;;9.07;;
47403;SDS011;33157;51.508;4.288;2023-02-23T17:40:35;42.50;;;11.98;;
47403;SDS011;33157;51.508;4.288;2023-02-23T17:45:39;40.75;;;12.70;;
47403;SDS011;33157;51.508;4.288;2023-02-23T17:50:47;33.17;;;13.88;;
47403;SDS011;33157;51.508;4.288;2023-02-23T17:55:59;31.88;;;13.27;;
47403;SDS011;33157;51.508;4.288;2023-02-23T18:01:07;32.33;;;13.15;;
47403;SDS011;33157;51.508;4.288;2023-02-23T18:06:11;30.75;;;13.23;;
47403;SDS011;33157;51.508;4.288;2023-02-23T18:11:13;27.38;;;8.90;;
47403;SDS011;33157;51.508;4.288;2023-02-23T18:16:23;17.40;;;7.30;;
47403;SDS011;33157;51.508;4.288;2023-02-23T18:21:27;20.17;;;11.15;;
47403;SDS011;33157;51.508;4.288;2023-02-23T18:26:28;20.33;;;7.75;;
47403;SDS011;33157;51.508;4.288;2023-02-23T18:31:30;19.35;;;7.10;;
47403;SDS011;33157;51.508;4.288;2023-02-23T18:36:37;21.87;;;6.97;;
47403;SDS011;33157;51.508;4.288;2023-02-23T18:41:43;26.15;;;7.20;;
47403;SDS011;33157;51.508;4.288;2023-02-23T18:46:49;28.17;;;7.13;;
47403;SDS011;33157;51.508;4.288;2023-02-23T18:51:52;21.30;;;6.65;;
47403;SDS011;33157;51.508;4.288;2023-02-23T18:56:59;31.87;;;8.23;;
47403;SDS011;33157;51.508;4.288;2023-02-23T19:02:00;30.27;;;8.07;;
47403;SDS011;33157;51.508;4.288;2023-02-23T19:07:01;42.67;;;7.85;;
47403;SDS011;33157;51.508;4.288;2023-02-23T19:12:02;49.20;;;8.15;;
47403;SDS011;33157;51.508;4.288;2023-02-23T19:17:03;28.48;;;7.28;;
47403;SDS011;33157;51.508;4.288;2023-02-23T19:22:09;27.70;;;6.30;;
47403;SDS011;33157;51.508;4.288;2023-02-23T19:27:11;33.05;;;7.10;;
47403;SDS011;33157;51.508;4.288;2023-02-23T19:32:12;24.75;;;6.13;;
47403;SDS011;33157;51.508;4.288;2023-02-23T19:37:33;25.73;;;6.05;;
47403;SDS011;33157;51.508;4.288;2023-02-23T19:42:35;27.02;;;4.53;;
47403;SDS011;33157;51.508;4.288;2023-02-23T19:47:42;34.42;;;5.35;;
47403;SDS011;33157;51.508;4.288;2023-02-23T19:52:46;21.27;;;4.43;;
47403;SDS011;33157;51.508;4.288;2023-02-23T19:57:56;21.27;;;5.35;;
47403;SDS011;33157;51.508;4.288;2023-02-23T20:02:58;27.17;;;6.15;;
47403;SDS011;33157;51.508;4.288;2023-02-23T20:08:12;23.83;;;4.32;;
47403;SDS011;33157;51.508;4.288;2023-02-23T20:13:18;30.23;;;5.00;;
47403;SDS011;33157;51.508;4.288;2023-02-23T20:18:29;32.25;;;5.75;;
47403;SDS011;33157;51.508;4.288;2023-02-23T20:29:22;20.95;;;4.80;;
47403;SDS011;33157;51.508;4.288;2023-02-23T20:34:27;36.05;;;7.55;;
47403;SDS011;33157;51.508;4.288;2023-02-23T20:39:40;28.75;;;5.40;;
47403;SDS011;33157;51.508;4.288;2023-02-23T20:44:43;25.27;;;5.22;;
47403;SDS011;33157;51.508;4.288;2023-02-23T20:49:50;29.77;;;6.13;;
47403;SDS011;33157;51.508;4.288;2023-02-23T20:54:54;31.50;;;5.93;;
47403;SDS011;33157;51.508;4.288;2023-02-23T21:05:08;22.90;;;4.75;;
47403;SDS011;33157;51.508;4.288;2023-02-23T21:10:17;27.33;;;5.65;;
47403;SDS011;33157;51.508;4.288;2023-02-23T21:15:19;18.67;;;3.90;;
47403;SDS011;33157;51.508;4.288;2023-02-23T21:20:24;21.17;;;4.13;;
47403;SDS011;33157;51.508;4.288;2023-02-23T21:25:55;17.00;;;3.57;;
47403;SDS011;33157;51.508;4.288;2023-02-23T21:31:03;22.75;;;3.53;;
47403;SDS011;33157;51.508;4.288;2023-02-23T21:36:07;25.90;;;4.97;;
47403;SDS011;33157;51.508;4.288;2023-02-23T21:41:13;22.20;;;3.55;;
47403;SDS011;33157;51.508;4.288;2023-02-23T21:46:21;25.55;;;3.88;;
47403;SDS011;33157;51.508;4.288;2023-02-23T21:51:24;13.02;;;3.10;;
47403;SDS011;33157;51.508;4.288;2023-02-23T21:56:41;19.97;;;3.40;;
47403;SDS011;33157;51.508;4.288;2023-02-23T22:01:46;14.27;;;3.25;;
47403;SDS011;33157;51.508;4.288;2023-02-23T22:06:50;21.85;;;3.55;;
47403;SDS011;33157;51.508;4.288;2023-02-23T22:11:53;19.73;;;3.35;;
47403;SDS011;33157;51.508;4.288;2023-02-23T22:17:01;24.20;;;4.60;;
47403;SDS011;33157;51.508;4.288;2023-02-23T22:22:05;13.40;;;2.75;;
47403;SDS011;33157;51.508;4.288;2023-02-23T22:27:08;29.65;;;4.53;;
47403;SDS011;33157;51.508;4.288;2023-02-23T22:32:15;15.50;;;3.63;;
47403;SDS011;33157;51.508;4.288;2023-02-23T22:37:19;18.98;;;3.08;;
47403;SDS011;33157;51.508;4.288;2023-02-23T22:42:31;12.90;;;3.00;;
47403;SDS011;33157;51.508;4.288;2023-02-23T22:47:34;26.75;;;4.65;;
47403;SDS011;33157;51.508;4.288;2023-02-23T22:52:41;20.85;;;3.50;;
47403;SDS011;33157;51.508;4.288;2023-02-23T22:57:46;17.88;;;3.03;;
47403;SDS011;33157;51.508;4.288;2023-02-23T23:02:54;19.92;;;4.47;;
47403;SDS011;33157;51.508;4.288;2023-02-23T23:07:57;21.65;;;3.55;;
47403;SDS011;33157;51.508;4.288;2023-02-23T23:12:58;23.13;;;3.83;;
47403;SDS011;33157;51.508;4.288;2023-02-23T23:18:31;21.70;;;3.75;;
47403;SDS011;33157;51.508;4.288;2023-02-23T23:23:39;22.40;;;4.40;;
47403;SDS011;33157;51.508;4.288;2023-02-23T23:28:44;20.45;;;3.63;;
47403;SDS011;33157;51.508;4.288;2023-02-23T23:34:04;20.70;;;3.17;;
47403;SDS011;33157;51.508;4.288;2023-02-23T23:39:10;27.65;;;4.90;;
47403;SDS011;33157;51.508;4.288;2023-02-23T23:44:13;28.20;;;3.92;;
47403;SDS011;33157;51.508;4.288;2023-02-23T23:49:22;21.00;;;2.95;;
47403;SDS011;33157;51.508;4.288;2023-02-23T23:54:29;26.48;;;3.45;;
47403;SDS011;33157;51.508;4.288;2023-02-23T23:59:38;20.40;;;3.40;;
